Mark Scott

Olheiro-Chefe - Luton Town
9 Dez 2027
Quinta-feira
Processo

Personalidade

Adaptabilidade (4) Ambição (16) Controvérsia (11) Lealdade (5) Pressão (7) Profissionalismo (10) Espírito Esportivo (6) Temperamento (3)

Perfil

Estilo de Treinamento Democrático
Licença Continental Pro
Determinação 4
Gestão de Pessoas 6
Motivação 12
Disciplina 8
Satisfação no Trabalho
35%
Fadiga
0%
Função Olheiro-Chefe
Salário 14.3K p/s
Contrato 14.03.2028

Desempenho

Comportamento Bom
Eficácia do Treinamento
17%
Desenvolvimento do Jogador
60%
Prevenção de Lesões
35%
Implementação Tática
35%

Eventos Recentes

Avaliou um jogador agora
Participou de uma reunião de recrutamento agora
Recomendou um alvo de transferência agora
Recomendou um alvo de transferência agora
Recomendou um alvo de transferência agora
Recomendou um alvo de transferência agora
Recomendou um alvo de transferência agora
Participou de uma reunião de recrutamento agora

Monitorando agora

236
Jogador Clube Status Habilidade Confiança Observado Última observação Último voto
Dylan Cabral Arsenal Ativo 98 / 97 40% 4 08.12.2027 -
Ryan Kavuma-McQueen Accrington Stanley Ativo 118 / 123 40% 1 08.12.2027 -
Chimobi Igwilo Rangers International Ativo 81 / 96 40% 5 07.12.2027 -
Estêvão Millwall Ativo 153 / 163 40% 2 07.12.2027 -
Bazoumana Touré Newcastle United Ativo 144 / 146 40% 1 07.12.2027 -
Ben Broggio Grimsby Town Ativo 115 / 115 40% 1 06.12.2027 -
Gabe Forsyth Crawley Town Ativo 109 / 113 40% 1 06.12.2027 -
Juan Camilo Córdoba Deportivo Pereira Ativo 79 / 82 40% 3 05.12.2027 -
Franco Minerva Platense Ativo 115 / 119 40% 3 05.12.2027 -
Jay Robinson Southampton Ativo 132 / 131 40% 1 05.12.2027 -
Tomás Aranda Boca Juniors Ativo 106 / 122 40% 7 04.12.2027 -
Honest Ahanor Atalanta Ativo 137 / 141 40% 7 04.12.2027 -
Esquerdinha Shrewsbury Town Ativo 114 / 117 40% 1 04.12.2027 -
Facundo Martínez Montevideo City Torque Ativo 89 / 100 40% 3 03.12.2027 -
Fredrik Ardraa Stromsgodset Ativo 110 / 119 40% 5 03.12.2027 -
Jayden Danns Wigan Athletic Ativo 140 / 135 40% 1 03.12.2027 -
Jake Evans Colchester United Ativo 103 / 126 40% 1 01.12.2027 -
Luighi Palmeiras Ativo 109 / 113 40% 4 30.11.2027 -
Chaka Coulibaly Remo Stars Ativo 85 / 109 40% 4 30.11.2027 -
Hervin Goyes Deportivo Pasto Ativo 117 / 108 40% 6 29.11.2027 -
Lucas Camejo River Plate Ativo 88 / 94 40% 4 29.11.2027 -
Tyson Pearce St. Louis CITY SC Ativo 90 / 100 40% 3 29.11.2027 -
Tiziano Cabrera Central Norte Ativo 88 / 86 40% 3 28.11.2027 -
Kevin Angulo America de Cali Ativo 92 / 104 40% 3 28.11.2027 -
Ruben Ramos LA Galaxy Ativo 105 / 104 40% 3 28.11.2027 -
Wilfred Correa Caracas Ativo 105 / 104 40% 1 27.11.2027 -
Trey Nyoni Rotherham United Ativo 136 / 133 40% 1 27.11.2027 -
Joel Ezra Enyimba Ativo 90 / 99 40% 7 24.11.2027 -
Dominik Chong Qui Atlanta United FC Ativo 93 / 99 40% 6 23.11.2027 -
Alfie James Ventforet Kofu Ativo 89 / 103 40% 2 23.11.2027 -
Emmanuel Ndubueze Shooting Stars Ativo 81 / 92 40% 3 23.11.2027 -
Luca Williams-Barnett Tranmere Rovers Ativo 119 / 127 40% 7 22.11.2027 -
Nicolas Sport Recife Ativo 112 / 115 40% 2 22.11.2027 -
Kerim Alajbegović Modena Ativo 131 / 131 40% 1 22.11.2027 -
Joseph Abah Remo Stars Ativo 88 / 93 40% 3 21.11.2027 -
Diogo Guzmán Montevideo City Torque Ativo 116 / 124 40% 8 20.11.2027 -
Oscar Schwartau Norwich City Ativo 135 / 135 40% 1 20.11.2027 -
Chinedu Nwosu Bendel Insurance Ativo 87 / 82 40% 4 18.11.2027 -
Sebastian Olderheim Stabaek Ativo 97 / 111 40% 2 18.11.2027 -
Mikkel Hope Haugesund Ativo 102 / 111 40% 2 17.11.2027 -
Gonçalo Moreira Benfica Ativo 126 / 123 40% 1 17.11.2027 -
Cooper Sanchez Atlanta United FC Ativo 96 / 103 40% 2 15.11.2027 -
Archie Gray Derby County Ativo 155 / 149 40% 2 15.11.2027 -
Hassan Beja AFC Leopards Ativo 78 / 79 40% 8 13.11.2027 -
Dmitry Pestryakov Dinamo Moscow Ativo 124 / 130 40% 1 11.11.2027 -
Tiago Parente Benfica Ativo 111 / 117 40% 1 08.11.2027 -
Brandon Álvarez Penarol Ativo 86 / 91 40% 3 07.11.2027 -
Seb Ferdinand Chesterfield Ativo 111 / 126 40% 1 07.11.2027 -
Bassey John Enyimba Ativo 84 / 86 40% 1 07.11.2027 -
Ethan Williams Peterborough United Ativo 123 / 125 40% 1 03.11.2027 -
Andy Rojas New York Red Bulls Ativo 105 / 98 40% 2 30.10.2027 -
Ethan Nwaneri Arsenal Ativo 145 / 165 40% 1 30.10.2027 -
Caleb Yirenkyi Coventry City Ativo 134 / 150 40% 5 29.10.2027 -
Matías Canedo Rampla Juniors Ativo 86 / 90 40% 2 27.10.2027 -
Luis Vidal Deportivo Pereira Ativo 82 / 104 40% 3 26.10.2027 -
Ben Gannon Doak Bournemouth Ativo 150 / 154 40% 2 25.10.2027 -
Harbor Miller LA Galaxy Ativo 103 / 96 40% 5 24.10.2027 -
Daniel Ferraresi Llaneros Ativo 88 / 82 40% 2 24.10.2027 -
Micah Burton Austin FC Ativo 88 / 93 40% 1 22.10.2027 -
Zannetos Savva Albirex Niigata Ativo 82 / 93 40% 1 20.10.2027 -
Ronan Kpakio Cardiff City Ativo 116 / 125 40% 1 19.10.2027 -
Musa Malik Ikorodu City Ativo 101 / 90 40% 1 19.10.2027 -
Gilberto Mora Atlético Madrid Ativo 136 / 135 40% 2 16.10.2027 -
Ramiro Jara Racing Ativo 79 / 86 40% 2 11.10.2027 -
Santiago López Independiente Ativo 127 / 129 40% 3 10.10.2027 -
Giovanni Baroni Talleres Ativo 107 / 134 40% 2 09.10.2027 -
Emiliano Zambrano Gimnasia y Esgrima Ativo 93 / 103 40% 4 09.10.2027 -
Santino Carrizo Chacarita Juniors Ativo 76 / 84 40% 1 09.10.2027 -
Joseph Arumala Ikorodu City Ativo 94 / 80 40% 1 07.10.2027 -
Mauro Carrizo Atlético Tucumán Ativo 104 / 106 40% 1 05.10.2027 -
Tobias Moi Bodo/Glimt Ativo 114 / 108 40% 1 05.10.2027 -
Chibueze Oputa Rangers International Ativo 84 / 92 40% 1 04.10.2027 -
Diego Vargas San Marcos de Arica Ativo 82 / 99 40% 1 04.10.2027 -
Gift Udoh Ikorodu City Ativo 90 / 103 40% 1 04.10.2027 -
Aiden Hezarkhani Real Salt Lake Ativo 96 / 102 40% 2 02.10.2027 -
Demian Rea Banfield Ativo 101 / 115 40% 1 01.10.2027 -
Mikhail Alexandrov Dinamo Brest Ativo 89 / 91 40% 1 01.10.2027 -
Samuel Posada Leones Ativo 85 / 87 40% 1 27.09.2027 -
Jofrank Istifanus Nasarawa United Ativo 86 / 87 40% 3 23.09.2027 -
Emmanuel Chacón Zulia Ativo 82 / 94 40% 1 23.09.2027 -
Joaquín Muñoz O'Higgins Ativo 79 / 87 40% 1 21.09.2027 -
Juan Rodríguez Wanderers Ativo 96 / 95 40% 1 20.09.2027 -
Josh King Chelsea Ativo 150 / 142 40% 1 15.09.2027 -
Noah Streit CF Montreal Ativo 112 / 125 40% 1 14.09.2027 -
Jhon Renteria Sarmiento Ativo 103 / 129 40% 1 13.09.2027 -
Dilan Godoy Vélez Ativo 101 / 127 40% 2 12.09.2027 -
Matías Gómez Granada Ativo 112 / 127 40% 4 28.06.2027 -
Jan Bürger Gillingham Ativo 114 / 117 40% 2 28.06.2027 -
Percy Jali Free State Stars Ativo 92 / 107 40% 4 02.06.2027 -
Joseph Nuhu Hasaacas Ativo 90 / 81 40% 2 02.06.2027 -
Dion Beljo Standard Liege Negociando 131 / 132 66% 1 01.06.2027 Aprovar
Sascha Britschgi Padova Ativo 115 / 121 40% 3 30.05.2027 -
Joel McGregor Swindon Town Ativo 92 / 95 40% 3 30.05.2027 -
Davide Bartesaghi AC Milan Ativo 129 / 135 40% 4 30.05.2027 -
Riley Owen Trento Ativo 103 / 102 40% 5 28.05.2027 -
Finley McAllister Grimsby Town Ativo 89 / 104 40% 1 28.05.2027 -
Fuzy Taylor Medeama Ativo 82 / 89 40% 2 26.05.2027 -
Mpho Khethang AS Police Ativo 80 / 82 40% 4 26.05.2027 -
David Atiemo Liberty Professionals Ativo 86 / 86 40% 4 25.05.2027 -
Juan Giménez Celta Ativo 116 / 131 40% 2 25.05.2027 -
Jofre Torrents Ajax Ativo 121 / 133 40% 4 24.05.2027 -
Christos Mouzakitis Hull City Ativo 136 / 132 40% 7 24.05.2027 -
Daniel Kelly Oxford United Ativo 114 / 128 40% 2 24.05.2027 -
Dylan Lawlor Cardiff City Ativo 118 / 112 40% 3 22.05.2027 -
Olaniyi Saheed Kwara United Ativo 84 / 87 40% 1 22.05.2027 -
Yussif Saidu Zaragoza Ativo 121 / 129 40% 2 21.05.2027 -
Johan Manzambi Newcastle United Ativo 142 / 150 40% 1 17.05.2027 -
Keagan Tau Ajax Cape Town Ativo 104 / 105 40% 4 15.05.2027 -
Edwin Asamoah Berekum Chelsea Ativo 75 / 97 40% 3 14.05.2027 -
Christ Inao Oulaï Fiorentina Ativo 138 / 138 40% 3 13.05.2027 -
Josh Smith Accrington Stanley Ativo 75 / 83 40% 1 10.05.2027 -
Leandro Martins Benfica Ativo 92 / 90 40% 2 09.05.2027 -
Felix Afful Liberty Professionals Ativo 86 / 85 40% 2 08.05.2027 -
Kazunari Kita Real Sociedad Ativo 91 / 98 40% 3 06.05.2027 -
Martim Cunha Porto Ativo 98 / 104 40% 2 02.05.2027 -
Tiago Freitas Benfica Ativo 103 / 108 40% 1 02.05.2027 -
Ernie Weaver AFC Wimbledon Ativo 103 / 113 40% 1 26.04.2027 -
David Ozoh Derby County Ativo 113 / 135 40% 1 26.04.2027 -
Hlompho Lorch Ajax Cape Town Ativo 107 / 113 40% 2 22.04.2027 -
Zane Albarus Cambridge United Ativo 88 / 96 40% 1 20.04.2027 -
Surprise Manthosi Polokwane City Ativo 103 / 102 40% 1 20.04.2027 -
Cathal Heffernan Harrogate Town Ativo 81 / 84 40% 2 19.04.2027 -
Daniel Costa Sporting CP Ativo 95 / 102 40% 1 18.04.2027 -
Bernardo Lima Porto Ativo 101 / 107 40% 1 12.04.2027 -
Rivaldo Grobler Free State Stars Ativo 100 / 118 40% 1 12.04.2027 -
Pietro Reggiori Pro Patria Ativo 88 / 100 40% 1 11.04.2027 -
Ronwen Phiri Platinum Stars Ativo 99 / 97 40% 1 10.04.2027 -
Gopolang Taunyane CR Belouizdad Ativo 103 / 93 40% 1 09.04.2027 -
Tyler Fredricson Oldham Athletic Ativo 102 / 110 40% 1 18.01.2027 -
Mbekezeli Mbokazi Chicago Fire Ativo 121 / 119 40% 2 01.01.2027 -
Amar Memić Casa Pia Negociando 127 / 128 62% 1 01.01.2027 Aprovar
Andreas Trimmel Red Bull Salzburg Ativo 131 / 131 60% 1 01.01.2027 Aprovar
Jefry Zapata Danubio Negociando 118 / 118 67% 1 01.01.2027 Aprovar
Themba Ngcobo SuperSport United Ativo 118 / 111 40% 5 31.12.2026 -
Morgan Whittaker Middlesbrough Ativo 138 / 128 40% 2 31.12.2026 -
Robert Mizo Ashanti Gold Ativo 100 / 116 40% 1 31.12.2026 -
Sorba Thomas Stoke City Ativo 138 / 140 40% 2 30.12.2026 -
Romano Schmid Frosinone Ativo 151 / 143 40% 1 30.12.2026 -
Giorgi Chakvetadze Watford Ativo 125 / 122 40% 1 30.12.2026 -
Etiosa Ighodaro Kaizer Chiefs Ativo 108 / 123 40% 2 27.12.2026 -
Mohamed-Ali Cho Hull City Ativo 124 / 126 40% 2 26.12.2026 -
Yousef Salech Cardiff City Ativo 120 / 118 40% 2 25.12.2026 -
Richard Koné Queens Park Rangers Ativo 124 / 113 40% 2 25.12.2026 -
Georginio Rutter Brighton Ativo 149 / 147 40% 4 24.12.2026 -
Matt O'Riley Brighton Ativo 146 / 136 40% 3 24.12.2026 -
Mathias Jørgensen Blackburn Rovers Ativo 119 / 125 40% 1 24.12.2026 -
Ali Ahmed Norwich City Ativo 120 / 119 40% 1 23.12.2026 -
Will Lankshear Middlesbrough Ativo 126 / 134 40% 2 21.12.2026 -
Bongani Mothiba SuperSport United Ativo 84 / 74 40% 3 21.12.2026 -
Derensili Sanches Fernandes Huddersfield Town Ativo 126 / 123 40% 4 21.12.2026 -
Niall Ennis Blackpool Ativo 114 / 116 40% 1 21.12.2026 -
Tyreece Simpson Maritzburg United Ativo 75 / 88 40% 2 19.12.2026 -
Brayan León Mamelodi Sundowns Ativo 125 / 120 40% 3 19.12.2026 -
Tadeo Allende Inter Miami CF Ativo 119 / 116 40% 4 16.12.2026 Observar
Mandla Mahlangu Ajax Cape Town Ativo 107 / 105 40% 3 16.12.2026 -
Bamba Dieng Crvena Zvezda Ativo 124 / 130 40% 1 16.12.2026 -
Bryan Ramírez FC Cincinnati Ativo 124 / 133 40% 1 15.12.2026 -
Williams Manyama SuperSport United Ativo 113 / 113 40% 1 15.12.2026 -
Mohammed Yahaya Great Olympics Ativo 75 / 98 40% 1 15.12.2026 -
Kévin Denkey FC Cincinnati Ativo 133 / 121 40% 4 13.12.2026 -
Razvan Balasa Crvena Zvezda Ativo 144 / 142 40% 3 13.12.2026 -
Ruben van Bommel Ferencvaros Ativo 136 / 140 40% 2 13.12.2026 -
Tom Fellows Southampton Ativo 123 / 124 40% 3 11.12.2026 -
Kelvin Yeboah Minnesota United FC Ativo 126 / 130 40% 4 11.12.2026 -
Carlos Vicente Birmingham Ativo 140 / 133 40% 2 11.12.2026 -
Marezi Portsmouth Ativo 115 / 114 40% 1 11.12.2026 -
Nathan Ordaz Metalist Ativo 102 / 121 40% 1 11.12.2026 -
Kwadwo Baah Watford Ativo 121 / 126 40% 1 10.12.2026 -
Shea Charles Southampton Ativo 139 / 124 40% 1 09.12.2026 -
Kenan Dervišagić Floriana Ativo 106 / 91 40% 2 07.12.2026 -
Bénie Traoré New York City Ativo 124 / 128 40% 3 03.12.2026 -
Dean Erasmus Platinum Stars Ativo 101 / 79 40% 1 03.12.2026 -
Theo Corbeanu Toronto FC Ativo 129 / 115 40% 2 02.12.2026 -
Armindo Sieb Los Angeles Football Club Ativo 123 / 131 40% 2 02.12.2026 -
Tshepang Moremi Orlando Pirates Ativo 115 / 103 40% 2 02.12.2026 -
Sibusiso Tshabalala Polokwane City Ativo 83 / 94 40% 1 28.11.2026 -
Rafael Navarro St. Louis CITY SC Ativo 131 / 131 40% 8 27.11.2026 -
Alexander Aravena Portland Timbers Ativo 129 / 133 40% 3 27.11.2026 -
Lorent Tolaj Plymouth Argyle Ativo 114 / 119 40% 1 26.11.2026 -
Joshua Zirkzee Manchester United Ativo 138 / 134 40% 1 25.11.2026 -
Wessam Abou Ali Columbus Crew Ativo 124 / 135 40% 1 25.11.2026 -
Tomás Chancalay Minnesota United FC Ativo 121 / 133 40% 3 24.11.2026 -
Jack Rudoni Coventry City Ativo 130 / 135 40% 1 24.11.2026 -
Tyrese Campbell Sheffield United Ativo 120 / 118 40% 3 23.11.2026 -
Ilyas Ansah Hull City Ativo 135 / 122 40% 1 22.11.2026 -
Diego Luna Real Salt Lake Ativo 130 / 131 40% 2 21.11.2026 -
Josh Sargent Toronto FC Ativo 136 / 131 40% 1 17.11.2026 -
Bongani Modiba Black Aces Ativo 130 / 137 40% 1 16.11.2026 -
Álvaro Rodríguez Bournemouth Ativo 134 / 134 40% 1 16.11.2026 -
Conrad Wallem Austria Wien Ativo 135 / 135 40% 1 13.11.2026 -
Welington Southampton Ativo 123 / 128 40% 1 13.11.2026 -
Santiago Rodríguez Columbus Crew Ativo 120 / 119 40% 1 13.11.2026 -
Agustín Anello Philadelphia Union Ativo 122 / 133 40% 4 11.11.2026 -
Dejan Joveljić Seattle Sounders Ativo 134 / 119 40% 4 11.11.2026 -
Othmane Maamma Watford Ativo 132 / 122 40% 1 11.11.2026 -
Juan Manuel Sanabria Real Salt Lake Ativo 128 / 130 40% 2 09.11.2026 -
Luis Vázquez Birmingham Ativo 127 / 128 40% 1 07.11.2026 -
Evidence Makgopa Orlando Pirates Ativo 113 / 120 40% 1 03.11.2026 -
Tommy Conway Middlesbrough Ativo 122 / 137 40% 1 03.11.2026 -
Cheikh Sabaly Vancouver Whitecaps Ativo 127 / 119 40% 3 02.11.2026 -
Victor Olatunji Real Salt Lake Ativo 116 / 118 40% 1 02.11.2026 -
Martín Ojeda Orlando City Ativo 142 / 129 40% 4 01.11.2026 -
Joe Gelhardt Hull City Ativo 126 / 129 40% 2 01.11.2026 -
Antonio Galeano Remo Stars Ativo 112 / 139 40% 2 01.11.2026 -
Yeangel Montero Naxxar Lions Ativo 103 / 106 40% 1 31.10.2026 -
Jeong Sang-Bin St. Louis CITY SC Ativo 112 / 121 40% 2 30.10.2026 -
Louis Munteanu DC United Ativo 119 / 118 40% 1 30.10.2026 -
Indiana Vassilev Philadelphia Union Ativo 118 / 122 40% 3 26.10.2026 -
Scott Twine Bristol City Ativo 115 / 115 40% 1 26.10.2026 -
Facundo Mura Inter Miami CF Ativo 132 / 131 40% 1 26.10.2026 -
Adnan Courtois KV Oostende Ativo 141 / 136 40% 3 24.10.2026 -
Leonardo Campana New England Revolution Ativo 128 / 125 40% 2 23.10.2026 -
Andrés Herrera Columbus Crew Ativo 129 / 114 40% 1 21.10.2026 -
Quinn Sullivan Philadelphia Union Ativo 121 / 127 40% 1 21.10.2026 -
Archie Goodwin Charlotte Football Club Ativo 108 / 114 40% 2 17.10.2026 -
Dávid Strelec Middlesbrough Ativo 144 / 139 40% 1 16.10.2026 -
Kevin Kelsy Portland Timbers Ativo 114 / 124 40% 2 15.10.2026 -
Cameron Archer Southampton Ativo 120 / 131 40% 1 12.10.2026 -
Yannick Bright Inter Miami CF Ativo 121 / 127 40% 1 09.10.2026 -
Joseph Rosales Austin FC Ativo 116 / 108 40% 1 09.10.2026 -
Riqui Puig LA Galaxy Ativo 136 / 141 40% 1 09.10.2026 -
Ayoub Jabbari FC Cincinnati Ativo 115 / 114 40% 1 08.10.2026 -
Alhassan Yusuf New England Revolution Ativo 129 / 123 40% 1 15.09.2026 -
Jahkeele Marshall-Rutty New York Red Bulls Ativo 114 / 121 40% 1 15.09.2026 -
Gabriel Pirani San Diego Football Club Ativo 139 / 122 40% 1 14.09.2026 -
Rui Modesto Vancouver Whitecaps Ativo 130 / 123 40% 1 14.09.2026 -
Lucas Sanabria LA Galaxy Ativo 124 / 135 40% 1 12.09.2026 -
Patrick Yazbek Nashville SC Ativo 128 / 116 40% 1 08.09.2026 -
Iván Angulo Orlando City Ativo 122 / 125 40% 1 08.09.2026 -
Marco Pašalić Orlando City Ativo 135 / 123 40% 1 08.09.2026 -
Pablo Ruiz Real Salt Lake Ativo 120 / 120 40% 1 07.09.2026 -
Edvard Tagseth Nashville SC Ativo 109 / 111 40% 1 07.09.2026 -
Mamadou Jobe Cambridge United Ativo 93 / 96 65% 1 10.08.2026 Aprovar
Jack Hinshelwood Brighton Ativo 137 / 154 40% 1 03.08.2026 -
Brooklyn Raines New England Revolution Ativo 101 / 108 40% 1 03.08.2026 -
Jack Neeley Charlotte Football Club Ativo 84 / 106 40% 1 01.08.2026 -